createdAt,value
2019-02-27T00:00:52.263Z,4.30
2019-02-27T00:03:37.785Z,4.80
2019-02-27T00:06:31.396Z,4.80
2019-02-27T00:09:16.009Z,4.97
2019-02-27T00:12:00.753Z,4.97
2019-02-27T00:14:45.906Z,4.50
2019-02-27T00:17:30.618Z,4.47
2019-02-27T00:20:15.792Z,4.47
2019-02-27T00:23:09.705Z,4.33
2019-02-27T00:25:54.418Z,4.03
2019-02-27T00:28:40.337Z,4.33
2019-02-27T00:31:25.038Z,5.03
2019-02-27T00:34:09.774Z,4.23
2019-02-27T00:36:54.509Z,3.80
2019-02-27T00:39:39.114Z,4.17
2019-02-27T00:42:33.692Z,4.07
2019-02-27T00:45:18.677Z,4.03
2019-02-27T00:48:03.304Z,4.10
2019-02-27T00:50:48.394Z,4.30
2019-02-27T00:53:32.882Z,4.60
2019-02-27T00:56:17.991Z,5.10
2019-02-27T00:59:02.368Z,3.80
2019-02-27T01:01:47.521Z,4.03
2019-02-27T01:04:41.807Z,4.43
2019-02-27T01:07:26.490Z,5.00
2019-02-27T01:10:12.246Z,4.37
2019-02-27T01:12:58.700Z,4.83
2019-02-27T01:15:44.722Z,4.30
2019-02-27T01:18:38.502Z,4.30
2019-02-27T01:21:22.989Z,4.83
2019-02-27T01:24:08.485Z,4.43
2019-02-27T01:27:04.671Z,4.43
2019-02-27T01:29:50.954Z,4.90
2019-02-27T01:32:44.238Z,4.33
2019-02-27T01:35:29.075Z,4.53
2019-02-27T01:38:13.611Z,4.60
2019-02-27T01:40:58.271Z,4.87
2019-02-27T01:43:43.192Z,4.93
2019-02-27T01:46:28.439Z,4.53
2019-02-27T01:49:22.474Z,4.10
2019-02-27T01:52:07.234Z,4.97
2019-02-27T01:54:52.266Z,4.60
2019-02-27T01:57:46.119Z,5.00
2019-02-27T02:00:31.158Z,4.43
2019-02-27T02:03:25.034Z,4.80
2019-02-27T02:06:09.622Z,4.37
2019-02-27T02:08:53.912Z,4.80
2019-02-27T02:11:48.647Z,4.43
2019-02-27T02:14:33.173Z,4.10
2019-02-27T02:17:18.430Z,4.80
2019-02-27T02:20:04.414Z,4.87
2019-02-27T02:22:50.206Z,4.90
2019-02-27T02:25:43.883Z,4.90
2019-02-27T02:28:28.849Z,5.30
2019-02-27T02:31:22.374Z,4.87
2019-02-27T02:34:16.470Z,5.13
2019-02-27T02:37:02.661Z,4.83
2019-02-27T02:39:54.254Z,5.10
2019-02-27T02:42:33.998Z,4.90
2019-02-27T02:45:32.726Z,5.70
2019-02-27T02:48:27.893Z,5.77
2019-02-27T02:51:20.323Z,5.27
2019-02-27T02:54:05.603Z,5.33
2019-02-27T02:57:00.581Z,5.10
2019-02-27T02:59:46.038Z,5.40
2019-02-27T03:02:39.703Z,4.83
2019-02-27T03:05:24.465Z,5.50
2019-02-27T03:08:09.371Z,5.13
2019-02-27T03:10:54.116Z,5.50
2019-02-27T03:13:41.863Z,5.30
2019-02-27T03:16:27.174Z,5.63
2019-02-27T03:19:12.006Z,5.40
2019-02-27T03:22:03.131Z,5.27
2019-02-27T03:24:43.295Z,4.87
2019-02-27T03:27:37.623Z,5.90
2019-02-27T03:30:36.298Z,5.70
2019-02-27T03:33:27.454Z,5.40
2019-02-27T03:36:21.360Z,5.90
2019-02-27T03:39:05.656Z,5.70
2019-02-27T03:41:50.872Z,5.60
2019-02-27T03:44:35.451Z,5.80
2019-02-27T03:47:20.508Z,5.80
2019-02-27T03:50:05.398Z,5.80
2019-02-27T03:53:02.256Z,5.20
2019-02-27T03:55:58.675Z,5.53
2019-02-27T03:58:43.367Z,5.50
2019-02-27T04:01:30.498Z,5.63
2019-02-27T04:04:15.116Z,5.50
2019-02-27T04:06:59.758Z,6.33
2019-02-27T04:09:44.426Z,5.80
2019-02-27T04:12:29.231Z,5.90
2019-02-27T04:15:17.667Z,5.90
2019-02-27T04:18:00.835Z,5.63
2019-02-27T04:20:49.745Z,5.67
2019-02-27T04:23:47.765Z,5.80
2019-02-27T04:26:27.807Z,5.90
2019-02-27T04:29:12.334Z,6.00
2019-02-27T04:31:57.325Z,5.80
2019-02-27T04:34:41.989Z,5.50
2019-02-27T04:37:26.898Z,5.87
2019-02-27T04:40:11.808Z,5.60
2019-02-27T04:42:59.382Z,5.67
2019-02-27T04:45:46.717Z,5.40
2019-02-27T04:48:40.135Z,5.47
2019-02-27T04:51:24.975Z,5.33
2019-02-27T04:54:10.034Z,5.70
2019-02-27T04:57:04.075Z,6.10
2019-02-27T04:59:49.781Z,6.00
2019-02-27T05:02:35.198Z,5.57
2019-02-27T05:05:19.626Z,5.83
2019-02-27T05:08:04.566Z,5.87
2019-02-27T05:10:49.775Z,5.73
2019-02-27T05:13:44.079Z,5.63
2019-02-27T05:16:37.694Z,5.70
2019-02-27T05:19:22.488Z,6.50
2019-02-27T05:22:07.357Z,6.70
2019-02-27T05:24:51.918Z,6.00
2019-02-27T05:27:37.154Z,6.33
2019-02-27T05:30:22.046Z,5.97
2019-02-27T05:33:15.967Z,6.00
2019-02-27T05:36:01.090Z,6.90
2019-02-27T05:38:54.704Z,6.67
2019-02-27T05:41:39.487Z,6.27
2019-02-27T05:44:24.379Z,6.83
2019-02-27T05:47:11.109Z,7.20
2019-02-27T05:50:04.910Z,7.10
2019-02-27T05:52:49.700Z,6.57
2019-02-27T05:55:38.985Z,6.23
2019-02-27T05:58:30.270Z,6.37
2019-02-27T06:01:15.073Z,6.70
2019-02-27T06:03:59.393Z,6.13
2019-02-27T06:06:45.692Z,6.40
2019-02-27T06:09:41.455Z,6.07
2019-02-27T06:12:34.343Z,6.13
2019-02-27T06:15:19.111Z,6.60
2019-02-27T06:18:03.602Z,6.30
2019-02-27T06:20:48.980Z,6.57
2019-02-27T06:23:35.402Z,6.30
2019-02-27T06:26:18.370Z,6.30
2019-02-27T06:35:21.138Z,6.03
2019-02-27T06:38:15.079Z,6.63
2019-02-27T06:41:00.278Z,6.93
2019-02-27T06:43:53.898Z,6.37
2019-02-27T06:46:47.987Z,6.60
2019-02-27T06:49:32.914Z,6.57
2019-02-27T06:52:17.543Z,7.20
2019-02-27T06:55:02.558Z,7.30
2019-02-27T06:57:56.826Z,7.33
2019-02-27T07:00:52.810Z,7.80
2019-02-27T07:03:48.566Z,7.73
2019-02-27T07:06:34.507Z,7.13
2019-02-27T07:09:28.063Z,7.73
2019-02-27T07:12:13.100Z,7.13
2019-02-27T07:14:56.284Z,7.30
2019-02-27T07:21:01.218Z,7.97
2019-02-27T07:23:58.574Z,7.80
2019-02-27T07:26:51.938Z,7.37
2019-02-27T07:29:36.856Z,7.60
2019-02-27T07:32:21.722Z,7.77
2019-02-27T07:35:06.742Z,7.40
2019-02-27T07:37:51.860Z,7.80
2019-02-27T07:40:45.894Z,7.70
2019-02-27T07:43:39.915Z,8.83
2019-02-27T07:46:25.422Z,11.57
2019-02-27T07:49:10.391Z,8.97
2019-02-27T07:51:57.905Z,8.67
2019-02-27T07:54:41.625Z,9.03
2019-02-27T07:57:26.737Z,8.23
2019-02-27T08:00:14.829Z,9.77
2019-02-27T08:02:56.598Z,9.73
2019-02-27T08:09:15.450Z,9.20
2019-02-27T08:12:00.423Z,10.37
2019-02-27T08:14:45.757Z,10.33
2019-02-27T08:17:39.354Z,10.03
2019-02-27T08:20:24.354Z,10.20
2019-02-27T08:23:09.167Z,9.67
2019-02-27T08:25:54.098Z,9.83
2019-02-27T08:28:51.522Z,9.33
2019-02-27T08:31:45.418Z,10.70
2019-02-27T08:34:39.445Z,10.03
2019-02-27T08:37:33.202Z,10.83
2019-02-27T08:40:18.831Z,10.73
2019-02-27T08:43:12.522Z,10.27
2019-02-27T08:46:06.840Z,10.40
2019-02-27T08:49:00.450Z,11.10
2019-02-27T08:51:45.034Z,10.87
2019-02-27T08:54:32.206Z,12.00
2019-02-27T08:57:16.986Z,12.07
2019-02-27T09:00:14.242Z,14.13
2019-02-27T09:03:06.359Z,11.47
2019-02-27T09:05:50.997Z,11.67
2019-02-27T09:08:37.454Z,11.10
2019-02-27T09:11:22.057Z,11.43
2019-02-27T09:14:06.737Z,11.93
2019-02-27T09:16:51.538Z,11.30
2019-02-27T09:19:36.554Z,11.60
2019-02-27T09:22:21.567Z,11.37
2019-02-27T09:25:06.284Z,12.57
2019-02-27T09:27:51.074Z,11.83
2019-02-27T09:30:35.811Z,13.17
2019-02-27T09:33:21.030Z,10.53
2019-02-27T09:36:15.508Z,10.47
2019-02-27T09:39:09.374Z,11.43
2019-02-27T09:42:03.039Z,12.00
2019-02-27T09:44:47.894Z,11.17
2019-02-27T09:47:32.298Z,11.60
2019-02-27T09:50:17.179Z,11.70
2019-02-27T09:53:03.487Z,10.67
2019-02-27T09:55:53.298Z,11.50
2019-02-27T09:58:45.688Z,11.93
2019-02-27T10:01:34.413Z,12.27
2019-02-27T10:04:28.832Z,18.57
2019-02-27T10:07:16.810Z,17.07
2019-02-27T10:10:10.444Z,13.50
2019-02-27T10:13:04.603Z,12.33
2019-02-27T10:15:49.758Z,13.67
2019-02-27T10:18:43.655Z,12.67
2019-02-27T10:21:28.558Z,19.77
2019-02-27T10:24:13.619Z,12.80
2019-02-27T10:27:07.736Z,17.70
2019-02-27T10:30:01.615Z,13.77
2019-02-27T10:32:55.691Z,11.23
2019-02-27T10:35:41.055Z,11.70
2019-02-27T10:38:40.111Z,10.63
2019-02-27T10:41:20.834Z,10.73
2019-02-27T10:44:05.830Z,10.70
2019-02-27T10:46:52.129Z,10.63
2019-02-27T10:49:38.293Z,10.67
2019-02-27T10:52:24.318Z,10.77
2019-02-27T10:55:11.238Z,11.30
2019-02-27T10:57:58.323Z,9.87
2019-02-27T11:00:51.758Z,11.07
2019-02-27T11:03:36.872Z,10.73
2019-02-27T11:06:33.961Z,10.07
2019-02-27T11:09:26.218Z,10.03
2019-02-27T11:12:11.690Z,9.57
2019-02-27T11:15:08.108Z,10.20
2019-02-27T11:17:52.329Z,9.73
2019-02-27T11:20:46.212Z,9.73
2019-02-27T11:23:31.527Z,9.30
2019-02-27T11:26:23.831Z,9.37
2019-02-27T11:29:17.669Z,9.97
2019-02-27T11:32:02.950Z,9.67
2019-02-27T11:34:56.666Z,10.23
2019-02-27T11:37:41.479Z,9.17
2019-02-27T11:40:26.709Z,9.17
2019-02-27T11:43:20.390Z,9.07
2019-02-27T11:46:05.735Z,9.37
2019-02-27T11:48:59.949Z,10.63
2019-02-27T11:51:45.790Z,8.13
2019-02-27T11:54:30.334Z,7.57
2019-02-27T11:57:15.043Z,6.63
2019-02-27T12:00:00.581Z,6.57
2019-02-27T12:02:56.154Z,5.97
2019-02-27T12:05:56.670Z,6.70
2019-02-27T12:08:50.163Z,6.77
2019-02-27T12:11:35.533Z,6.80
2019-02-27T12:14:19.802Z,5.77
2019-02-27T12:17:04.577Z,5.47
2019-02-27T12:19:49.531Z,5.20
2019-02-27T12:22:43.935Z,4.93
2019-02-27T12:25:37.428Z,4.83
2019-02-27T12:28:23.125Z,4.77
2019-02-27T12:31:11.094Z,3.90
2019-02-27T12:33:54.847Z,3.57
2019-02-27T12:36:39.502Z,3.90
2019-02-27T12:39:24.529Z,5.23
2019-02-27T12:42:09.647Z,6.77
2019-02-27T12:44:54.719Z,4.63
2019-02-27T12:47:41.382Z,4.90
2019-02-27T12:50:35.190Z,4.53
2019-02-27T12:53:29.150Z,3.50
2019-02-27T12:56:13.654Z,3.27
2019-02-27T12:58:58.590Z,2.93
2019-02-27T13:01:52.970Z,3.17
2019-02-27T13:04:38.407Z,2.67
2019-02-27T13:07:23.017Z,2.70
2019-02-27T13:10:16.420Z,2.60
2019-02-27T13:13:01.082Z,2.90
2019-02-27T13:15:46.468Z,2.40
2019-02-27T13:18:40.435Z,2.30
2019-02-27T13:21:25.382Z,3.10
2019-02-27T13:24:19.870Z,3.80
2019-02-27T13:27:09.026Z,4.47
2019-02-27T13:29:56.756Z,3.30
2019-02-27T13:32:47.834Z,3.40
2019-02-27T13:35:32.902Z,2.70
2019-02-27T13:38:26.350Z,2.10
2019-02-27T13:41:11.602Z,2.20
2019-02-27T13:43:58.257Z,1.93
2019-02-27T13:46:54.487Z,2.50
2019-02-27T13:49:38.463Z,3.40
2019-02-27T13:52:23.114Z,3.80
2019-02-27T13:55:11.217Z,3.40
2019-02-27T13:57:58.835Z,3.30
2019-02-27T14:00:53.669Z,3.50
2019-02-27T14:03:48.394Z,3.20
2019-02-27T14:06:33.778Z,2.97
2019-02-27T14:09:19.081Z,2.80
2019-02-27T14:12:12.723Z,2.47
2019-02-27T14:14:58.698Z,3.07
2019-02-27T14:17:44.305Z,4.53
2019-02-27T14:20:37.808Z,2.40
2019-02-27T14:23:23.222Z,3.20
2019-02-27T14:26:16.998Z,2.60
2019-02-27T14:29:04.045Z,2.77
2019-02-27T14:31:57.855Z,3.27
2019-02-27T14:34:53.355Z,3.40
2019-02-27T14:37:38.274Z,2.93
2019-02-27T14:40:37.283Z,3.43
2019-02-27T14:43:27.969Z,3.60
2019-02-27T14:46:12.596Z,3.60
2019-02-27T14:48:57.922Z,3.27
2019-02-27T14:51:51.518Z,3.07
2019-02-27T14:54:36.594Z,3.83
2019-02-27T14:57:21.282Z,5.33
2019-02-27T15:00:06.653Z,4.00
2019-02-27T15:02:52.181Z,4.67
2019-02-27T15:05:43.158Z,4.67
2019-02-27T15:08:32.722Z,4.40
2019-02-27T15:11:17.966Z,4.77
2019-02-27T15:14:12.142Z,5.80
2019-02-27T15:17:06.484Z,5.30
2019-02-27T15:20:05.602Z,5.00
2019-02-27T15:23:08.181Z,5.17
2019-02-27T15:25:53.069Z,4.43
2019-02-27T15:28:37.890Z,4.30
2019-02-27T15:31:23.022Z,4.47
2019-02-27T15:34:11.834Z,5.07
2019-02-27T15:36:54.861Z,4.63
2019-02-27T15:39:49.130Z,4.07
2019-02-27T15:42:44.187Z,3.90
2019-02-27T15:45:29.758Z,4.40
2019-02-27T15:48:15.217Z,4.47
2019-02-27T15:51:00.394Z,4.63
2019-02-27T15:53:49.755Z,4.40
2019-02-27T15:56:44.628Z,5.30
2019-02-27T15:59:27.816Z,5.37
2019-02-27T16:02:12.310Z,5.07
2019-02-27T16:04:57.602Z,5.03
2019-02-27T16:07:48.460Z,5.07
2019-02-27T16:10:42.680Z,5.47
2019-02-27T16:13:24.570Z,4.60
2019-02-27T16:16:23.216Z,5.03
2019-02-27T16:19:16.595Z,5.20
2019-02-27T16:22:10.479Z,6.00
2019-02-27T16:25:04.549Z,5.00
2019-02-27T16:27:58.166Z,5.07
2019-02-27T16:30:43.242Z,4.97
2019-02-27T16:33:28.570Z,5.40
2019-02-27T16:36:23.463Z,5.23
2019-02-27T16:39:08.366Z,5.80
2019-02-27T16:41:54.788Z,5.07
2019-02-27T16:44:39.598Z,5.33
2019-02-27T16:47:23.942Z,5.20
2019-02-27T16:50:08.763Z,4.80
2019-02-27T16:52:53.582Z,5.43
2019-02-27T16:55:39.556Z,6.70
2019-02-27T16:58:33.853Z,4.87
2019-02-27T17:01:19.015Z,4.40
2019-02-27T17:04:03.738Z,4.40
2019-02-27T17:06:52.318Z,4.00
2019-02-27T17:09:38.222Z,3.90
2019-02-27T17:12:23.307Z,4.50
2019-02-27T17:15:07.993Z,3.70
2019-02-27T17:17:53.326Z,3.93
2019-02-27T17:20:38.849Z,3.90
2019-02-27T17:23:23.622Z,3.80
2019-02-27T17:26:09.010Z,3.90
2019-02-27T17:28:54.375Z,4.13
2019-02-27T17:31:49.747Z,4.20
2019-02-27T17:34:35.507Z,4.30
2019-02-27T17:37:20.924Z,5.07
2019-02-27T17:40:06.047Z,9.80
2019-02-27T17:42:53.500Z,12.40
2019-02-27T17:45:38.882Z,4.10
2019-02-27T17:48:32.361Z,4.27
2019-02-27T17:51:16.894Z,3.90
2019-02-27T17:54:01.983Z,3.93
2019-02-27T17:56:50.038Z,4.30
2019-02-27T17:59:43.047Z,4.83
2019-02-27T18:02:37.150Z,4.07
2019-02-27T18:05:25.453Z,4.00
2019-02-27T18:08:17.874Z,4.77
2019-02-27T18:11:15.406Z,6.17
2019-02-27T18:14:09.925Z,6.00
2019-02-27T18:16:54.205Z,4.83
2019-02-27T18:19:50.202Z,4.53
2019-02-27T18:22:34.690Z,4.43
2019-02-27T18:25:28.590Z,4.67
2019-02-27T18:28:23.203Z,4.20
2019-02-27T18:31:17.022Z,5.73
2019-02-27T18:34:11.410Z,9.57
2019-02-27T18:36:57.246Z,9.37
2019-02-27T18:39:43.258Z,5.97
2019-02-27T18:42:28.651Z,5.13
2019-02-27T18:45:15.283Z,5.47
2019-02-27T18:48:10.083Z,4.83
2019-02-27T18:50:56.017Z,5.07
2019-02-27T18:53:51.060Z,3.90
2019-02-27T18:56:36.919Z,3.30
2019-02-27T18:59:22.531Z,3.73
2019-02-27T19:02:19.536Z,4.40
2019-02-27T19:05:12.310Z,3.93
2019-02-27T19:07:57.313Z,4.20
2019-02-27T19:10:51.290Z,3.60
2019-02-27T19:13:36.010Z,3.87
2019-02-27T19:16:21.494Z,3.90
2019-02-27T19:19:06.646Z,4.00
2019-02-27T19:21:51.842Z,3.60
2019-02-27T19:24:37.345Z,4.13
2019-02-27T19:27:31.040Z,4.60
2019-02-27T19:30:16.286Z,3.90
2019-02-27T19:33:09.818Z,4.77
2019-02-27T19:35:56.380Z,4.57
2019-02-27T19:38:41.126Z,4.33
2019-02-27T19:41:26.335Z,5.27
2019-02-27T19:44:19.875Z,4.30
2019-02-27T19:47:04.617Z,3.93
2019-02-27T19:49:49.450Z,4.47
2019-02-27T19:52:34.950Z,4.60
2019-02-27T19:55:28.375Z,4.57
2019-02-27T19:58:17.154Z,4.87
2019-02-27T20:01:01.058Z,4.27
2019-02-27T20:03:47.207Z,4.53
2019-02-27T20:06:31.944Z,4.43
2019-02-27T20:09:20.157Z,4.37
2019-02-27T20:12:03.962Z,4.30
2019-02-27T20:14:57.724Z,4.20
2019-02-27T20:17:44.190Z,4.33
2019-02-27T20:20:30.091Z,4.10
2019-02-27T20:23:15.226Z,4.97
2019-02-27T20:26:00.496Z,5.17
2019-02-27T20:28:54.358Z,4.63
2019-02-27T20:31:39.654Z,4.50
2019-02-27T20:34:33.313Z,4.40
2019-02-27T20:37:18.271Z,4.80
2019-02-27T20:40:03.396Z,4.60
2019-02-27T20:42:58.927Z,4.87
2019-02-27T20:45:53.035Z,5.10
2019-02-27T20:48:47.007Z,4.27
2019-02-27T20:51:31.883Z,5.03
2019-02-27T20:54:17.046Z,5.20
2019-02-27T20:57:10.652Z,4.57
2019-02-27T21:00:00.758Z,5.23
2019-02-27T21:02:53.468Z,4.97
2019-02-27T21:05:41.105Z,4.90
2019-02-27T21:08:23.843Z,5.00
2019-02-27T21:11:15.942Z,4.90
2019-02-27T21:14:02.475Z,4.87
2019-02-27T21:16:48.690Z,5.20
2019-02-27T21:19:42.639Z,4.73
2019-02-27T21:22:36.246Z,5.50
2019-02-27T21:25:21.422Z,5.90
2019-02-27T21:28:20.979Z,4.77
2019-02-27T21:31:02.102Z,5.23
2019-02-27T21:33:55.790Z,5.10
2019-02-27T21:36:41.005Z,5.87
2019-02-27T21:39:34.439Z,5.97
2019-02-27T21:42:19.612Z,5.17
2019-02-27T21:45:13.611Z,5.93
2019-02-27T21:48:07.631Z,5.33
2019-02-27T21:50:52.178Z,6.20
2019-02-27T21:53:37.598Z,6.77
2019-02-27T21:56:31.548Z,5.80
2019-02-27T21:59:25.771Z,5.73
2019-02-27T22:02:22.143Z,5.47
2019-02-27T22:05:07.214Z,5.87
2019-02-27T22:07:51.712Z,5.83
2019-02-27T22:10:36.421Z,6.00
2019-02-27T22:13:28.895Z,6.17
2019-02-27T22:16:07.546Z,5.90
2019-02-27T22:18:52.207Z,6.30
2019-02-27T22:21:45.790Z,6.20
2019-02-27T22:24:30.797Z,6.10
2019-02-27T22:27:15.760Z,6.00
2019-02-27T22:30:10.000Z,6.33
2019-02-27T22:33:05.781Z,6.20
2019-02-27T22:35:59.562Z,5.97
2019-02-27T22:38:53.157Z,6.20
2019-02-27T22:41:40.647Z,5.60
2019-02-27T22:44:26.308Z,6.00
2019-02-27T22:47:10.574Z,5.90
2019-02-27T22:49:55.786Z,5.77
2019-02-27T22:52:40.894Z,6.10
2019-02-27T22:55:36.328Z,5.97
2019-02-27T22:58:21.607Z,6.47
2019-02-27T23:01:19.592Z,5.73
2019-02-27T23:04:05.319Z,5.97
2019-02-27T23:06:58.994Z,6.00
2019-02-27T23:09:43.746Z,5.70
2019-02-27T23:12:28.818Z,6.23
2019-02-27T23:15:13.629Z,6.30
2019-02-27T23:18:07.694Z,6.03
2019-02-27T23:20:52.571Z,5.70
2019-02-27T23:23:39.443Z,6.17
2019-02-27T23:26:24.099Z,5.60
2019-02-27T23:29:17.895Z,5.90
2019-02-27T23:32:02.842Z,5.97
2019-02-27T23:34:56.751Z,5.70
2019-02-27T23:37:41.858Z,6.37
2019-02-27T23:40:35.455Z,7.53
2019-02-27T23:43:20.434Z,4.87
2019-02-27T23:46:05.395Z,5.93
2019-02-27T23:48:50.391Z,4.87
2019-02-27T23:51:44.368Z,4.97
2019-02-27T23:54:38.531Z,5.90
2019-02-27T23:57:32.126Z,6.23
